Terminal Aerodrome Forecast
Issued by NWS Wilmington, OH

Current Version | Previous Version | Graphics & Text | Print | Product List | Glossary On
Versions: 1 2 3 4 5 6 7 8 9 10 11 12 13 14 15 16 17 18 19 20 21 22
000
FTUS41 KILN 232300
TAFCMH
TAF
KCMH 232320Z 2400/2424 05008KT 5SM -SN OVC015
      TEMPO 2400/2402 2SM -SN OVC008
     FM240300 05008KT P6SM OVC035
     FM241300 06008KT P6SM BKN035=

USA.gov is the U.S. government's official web portal to all federal, state and local government web resources and services.